Time;durP1;ratioP1;P1;durP2;ratioP2;P2;SDS_P1;SDS_P2;PMS_P1;PMS_P2;Temp;Humidity;BMP_temperature;BMP_pressure;BME280_temperature;BME280_humidity;BME280_pressure;Samples;Min_cycle;Max_cycle;Signal;HPM_P1;HPM_P2
2020/12/28 05:00:41;;;;;;;1999.90;999.90;;;4.40;99.90;;;;;;5794598;23;20232;-78
2020/12/28 05:03:08;;;;;;;1999.90;999.90;;;4.40;99.90;;;;;;4976496;28;20247;-78
2020/12/28 05:05:43;;;;;;;1999.90;999.90;;;4.40;99.90;;;;;;4977381;28;20348;-77
2020/12/28 05:08:10;;;;;;;1999.90;999.90;;;4.40;99.90;;;;;;4976689;28;20215;-78
2020/12/28 05:10:37;;;;;;;1999.90;999.90;;;4.40;99.90;;;;;;4976742;28;20228;-77
2020/12/28 05:13:08;;;;;;;1999.90;999.90;;;4.40;99.90;;;;;;4976763;28;20665;-79
2020/12/28 05:15:43;;;;;;;1999.90;999.90;;;4.50;99.90;;;;;;4976746;28;20252;-78
2020/12/28 05:18:13;;;;;;;1999.90;999.90;;;4.50;99.90;;;;;;4965766;28;20284;-77
2020/12/28 05:20:43;;;;;;;1999.90;999.90;;;4.50;99.90;;;;;;4968636;28;20628;-79
2020/12/28 05:23:10;;;;;;;1999.90;999.90;;;4.60;99.90;;;;;;4976307;28;20243;-77
2020/12/28 05:25:37;;;;;;;1999.90;999.90;;;4.60;99.90;;;;;;4976436;28;20661;-79
2020/12/28 05:28:04;;;;;;;1999.90;999.90;;;4.60;99.90;;;;;;4976596;28;20213;-78
2020/12/28 05:30:33;;;;;;;1999.90;999.90;;;4.50;99.90;;;;;;4975452;28;20224;-76
2020/12/28 05:33:02;;;;;;;1999.90;999.90;;;4.50;99.90;;;;;;4976128;28;20259;-78
2020/12/28 05:35:31;;;;;;;1999.90;999.90;;;4.50;99.90;;;;;;4976079;28;20697;-77
2020/12/28 05:38:00;;;;;;;1999.90;999.90;;;4.50;99.90;;;;;;4976121;28;20205;-77
2020/12/28 05:40:27;;;;;;;1999.90;999.90;;;4.50;99.90;;;;;;4976119;28;20643;-78
2020/12/28 05:42:56;;;;;;;1999.90;999.90;;;4.50;99.90;;;;;;4975922;28;20228;-77
2020/12/28 05:45:23;;;;;;;1999.90;999.90;;;4.50;99.90;;;;;;4976280;28;20636;-76
2020/12/28 05:47:53;;;;;;;1999.90;999.90;;;4.40;99.90;;;;;;4976234;28;20216;-76
2020/12/28 05:50:22;;;;;;;1999.90;999.90;;;4.40;99.90;;;;;;4975929;28;20271;-78
2020/12/28 05:52:54;;;;;;;1999.90;999.90;;;4.50;99.90;;;;;;4975863;28;20271;-76
2020/12/28 05:55:23;;;;;;;1999.90;999.90;;;4.40;99.90;;;;;;4975590;28;20708;-76
2020/12/28 05:57:50;;;;;;;1999.90;999.90;;;4.40;99.90;;;;;;4975015;28;20743;-78
2020/12/28 06:00:18;;;;;;;1999.90;999.90;;;4.40;99.90;;;;;;4975033;28;20201;-76
2020/12/28 06:02:45;;;;;;;1999.90;999.90;;;4.50;99.90;;;;;;4974866;28;20201;-78
2020/12/28 06:05:13;;;;;;;1999.90;999.90;;;4.40;99.90;;;;;;4973222;28;20228;-77
2020/12/28 06:07:40;;;;;;;1999.90;999.90;;;4.40;99.90;;;;;;4975173;28;20216;-77
2020/12/28 06:10:10;;;;;;;1999.90;999.90;;;4.40;99.90;;;;;;4975486;28;20205;-77
2020/12/28 06:12:37;;;;;;;1999.90;999.90;;;4.20;99.90;;;;;;4974877;28;20201;-76
2020/12/28 06:15:16;;;;;;;1999.90;999.90;;;4.20;99.90;;;;;;4974899;28;20201;-78
2020/12/28 06:17:43;;;;;;;1999.90;999.90;;;4.10;99.90;;;;;;4974956;28;20263;-76
2020/12/28 06:20:11;;;;;;;1999.90;999.90;;;4.10;99.90;;;;;;4975104;28;20212;-77
2020/12/28 06:22:39;;;;;;;1999.90;999.90;;;4.00;99.90;;;;;;4974783;28;20617;-78
2020/12/28 06:25:08;;;;;;;1999.90;999.90;;;4.10;99.90;;;;;;4974634;28;20228;-75
2020/12/28 06:27:38;;;;;;;1999.90;999.90;;;4.10;99.90;;;;;;4974663;28;20255;-77
2020/12/28 06:30:10;;;;;;;1999.90;999.90;;;4.00;99.90;;;;;;4974787;28;20749;-76
2020/12/28 06:32:37;;;;;;;1999.90;999.90;;;4.00;99.90;;;;;;4975827;28;20236;-78
2020/12/28 06:35:06;;;;;;;1999.90;999.90;;;3.90;99.90;;;;;;4975169;28;20259;-78
2020/12/28 06:37:41;;;;;;;1999.90;999.90;;;3.90;99.90;;;;;;4975127;28;20204;-79
2020/12/28 06:40:08;;;;;;;1999.90;999.90;;;3.90;99.90;;;;;;4975236;28;20270;-77
2020/12/28 06:42:36;;;;;;;1999.90;999.90;;;3.90;99.90;;;;;;4975382;28;20236;-78
2020/12/28 06:45:16;;;;;;;1999.90;999.90;;;3.90;99.90;;;;;;4974917;28;20220;-77
2020/12/28 06:47:44;;;;;;;1999.90;999.90;;;3.90;99.90;;;;;;4974563;28;20740;-78
2020/12/28 06:50:11;;;;;;;1999.90;999.90;;;3.90;99.90;;;;;;4975015;28;20200;-76
2020/12/28 06:52:38;;;;;;;1999.90;999.90;;;3.90;99.90;;;;;;4974908;28;20207;-77
2020/12/28 06:55:10;;;;;;;1999.90;999.90;;;3.90;99.90;;;;;;4975022;28;20201;-78
2020/12/28 06:57:39;;;;;;;1999.90;999.90;;;3.90;99.90;;;;;;4975326;28;20205;-78
2020/12/28 07:00:18;;;;;;;1999.90;999.90;;;3.90;99.90;;;;;;4974619;28;20197;-78
2020/12/28 07:02:50;;;;;;;1999.90;999.90;;;3.90;99.90;;;;;;4974833;28;20678;-78
2020/12/28 07:05:22;;;;;;;1999.90;999.90;;;3.90;99.90;;;;;;4974863;28;20221;-77
2020/12/28 07:07:50;;;;;;;1999.90;999.90;;;3.90;99.90;;;;;;4974982;28;20212;-77
2020/12/28 07:10:20;;;;;;;1999.90;999.90;;;3.90;99.90;;;;;;4974944;28;20240;-77
2020/12/28 07:12:49;;;;;;;1999.90;999.90;;;3.90;99.90;;;;;;4974581;28;20204;-77
2020/12/28 07:15:17;;;;;;;1999.90;999.90;;;4.00;99.90;;;;;;4978855;28;20200;-78
2020/12/28 07:17:44;;;;;;;1999.90;999.90;;;4.00;99.90;;;;;;4978487;28;20220;-78
2020/12/28 07:20:12;;;;;;;1999.90;999.90;;;4.00;99.90;;;;;;4978445;28;20256;-77
2020/12/28 07:22:41;;;;;;;1999.90;999.90;;;4.00;99.90;;;;;;4978232;28;20204;-77
2020/12/28 07:25:09;;;;;;;1999.90;999.90;;;4.00;99.90;;;;;;4977358;28;20216;-81
2020/12/28 07:27:39;;;;;;;1999.90;999.90;;;4.00;99.90;;;;;;4978093;28;20616;-79
2020/12/28 07:30:08;;;;;;;1999.90;999.90;;;4.00;99.90;;;;;;4976562;28;20196;-77
2020/12/28 07:32:35;;;;;;;1999.90;999.90;;;4.00;99.90;;;;;;4974896;28;20251;-78
2020/12/28 07:35:02;;;;;;;1999.90;999.90;;;4.00;99.90;;;;;;4977949;28;20228;-80
2020/12/28 07:37:30;;;;;;;1999.90;999.90;;;4.00;99.90;;;;;;4978243;28;20201;-79
2020/12/28 07:39:57;;;;;;;1999.90;999.90;;;4.00;99.90;;;;;;4977534;28;20232;-79
2020/12/28 07:42:26;;;;;;;1999.90;999.90;;;4.10;99.90;;;;;;4976386;28;20224;-78
2020/12/28 07:44:55;;;;;;;1999.90;999.90;;;4.10;99.90;;;;;;4975724;28;20636;-76
2020/12/28 07:47:32;;;;;;;1999.90;999.90;;;4.20;99.90;;;;;;4975983;28;20204;-76
2020/12/28 07:50:02;;;;;;;1999.90;999.90;;;4.20;99.90;;;;;;4975852;28;20627;-77
2020/12/28 07:52:30;;;;;;;1999.90;999.90;;;4.10;99.90;;;;;;4975708;28;20231;-75
2020/12/28 07:55:03;;;;;;;1999.90;999.90;;;4.10;99.90;;;;;;4974897;28;20196;-77
2020/12/28 07:57:43;;;;;;;1999.90;999.90;;;4.10;99.90;;;;;;4976015;28;20259;-76
2020/12/28 08:00:15;;;;;;;1999.90;999.90;;;4.20;99.90;;;;;;4977051;28;20222;-76
2020/12/28 08:03:04;;;;;;;1999.90;999.90;;;4.30;99.90;;;;;;4977498;28;20209;-76
2020/12/28 08:05:33;;;;;;;1999.90;999.90;;;4.30;99.90;;;;;;4967426;28;20275;-78
2020/12/28 08:08:00;;;;;;;1999.90;999.90;;;4.30;99.90;;;;;;4977574;28;20208;-76
2020/12/28 08:10:27;;;;;;;1999.90;999.90;;;4.30;99.90;;;;;;4977135;28;20208;-77
2020/12/28 08:12:59;;;;;;;1999.90;999.90;;;4.30;99.90;;;;;;4977249;28;20264;-75
2020/12/28 08:15:27;;;;;;;1999.90;999.90;;;4.30;99.90;;;;;;4977871;28;20624;-77
2020/12/28 08:18:06;;;;;;;1999.90;999.90;;;4.30;99.90;;;;;;4977020;28;20207;-76
2020/12/28 08:20:33;;;;;;;1999.90;999.90;;;4.40;99.90;;;;;;4976671;28;20287;-79
2020/12/28 08:23:00;;;;;;;1999.90;999.90;;;4.40;99.90;;;;;;4975859;28;20949;-79
2020/12/28 08:25:28;;;;;;;1999.90;999.90;;;4.40;99.90;;;;;;4975527;28;20267;-77
2020/12/28 08:27:56;;;;;;;1999.90;999.90;;;4.50;99.90;;;;;;4976873;28;20276;-75
2020/12/28 08:30:25;;;;;;;1999.90;999.90;;;4.60;99.90;;;;;;4977537;28;20227;-76
2020/12/28 08:32:56;;;;;;;1999.90;999.90;;;4.60;99.90;;;;;;4977348;28;20205;-77
2020/12/28 08:35:24;;;;;;;1999.90;999.90;;;4.70;99.90;;;;;;4977555;28;20196;-76
2020/12/28 08:37:52;;;;;;;1999.90;999.90;;;4.60;99.90;;;;;;4977559;28;20204;-76
2020/12/28 08:40:21;;;;;;;1999.90;999.90;;;4.70;99.90;;;;;;4977566;28;20673;-77
2020/12/28 08:42:52;;;;;;;1999.90;999.90;;;4.70;99.90;;;;;;4978229;28;20259;-77
2020/12/28 08:45:20;;;;;;;1999.90;999.90;;;4.70;99.90;;;;;;4977071;28;20233;-76
2020/12/28 08:47:51;;;;;;;1999.90;999.90;;;4.80;99.90;;;;;;4977649;28;20213;-76
2020/12/28 08:50:18;;;;;;;1999.90;999.90;;;4.80;99.90;;;;;;4977512;28;20205;-77
2020/12/28 08:52:51;;;;;;;1999.90;999.90;;;4.70;99.90;;;;;;4977556;28;20208;-76
2020/12/28 08:55:19;;;;;;;1999.90;999.90;;;4.70;99.90;;;;;;4976802;28;20609;-77
2020/12/28 08:57:51;;;;;;;1999.90;999.90;;;4.70;99.90;;;;;;4977317;28;20670;-77
2020/12/28 09:00:18;;;;;;;1999.90;999.90;;;4.70;99.90;;;;;;4976412;28;20205;-76
2020/12/28 09:02:51;;;;;;;1999.90;999.90;;;4.70;99.90;;;;;;4976911;28;20260;-77
2020/12/28 09:05:18;;;;;;;1999.90;999.90;;;4.70;99.90;;;;;;4977205;28;20208;-75
2020/12/28 09:07:45;;;;;;;1999.90;999.90;;;4.70;99.90;;;;;;4981275;28;20208;-77
2020/12/28 09:10:13;;;;;;;1999.90;999.90;;;4.70;99.90;;;;;;4980878;28;20212;-76
2020/12/28 09:12:41;;;;;;;1999.90;999.90;;;4.70;99.90;;;;;;4980920;28;20256;-77
2020/12/28 09:15:08;;;;;;;1999.90;999.90;;;4.70;99.90;;;;;;4980363;28;20249;-75
2020/12/28 09:17:35;;;;;;;1999.90;999.90;;;4.70;99.90;;;;;;4981394;28;20690;-77
2020/12/28 09:20:03;;;;;;;1999.90;999.90;;;4.70;99.90;;;;;;4978230;28;20204;-76
2020/12/28 09:22:30;;;;;;;1999.90;999.90;;;4.70;99.90;;;;;;4981379;28;20224;-75
2020/12/28 09:24:57;;;;;;;1999.90;999.90;;;4.70;99.90;;;;;;4979122;28;20228;-77
2020/12/28 09:27:28;;;;;;;1999.90;999.90;;;4.80;99.90;;;;;;4980785;28;20638;-77
2020/12/28 09:29:55;;;;;;;1999.90;999.90;;;4.80;99.90;;;;;;4979431;28;20208;-75
2020/12/28 09:32:22;;;;;;;1999.90;999.90;;;4.70;99.90;;;;;;4980695;28;20260;-77
2020/12/28 09:34:49;;;;;;;1999.90;999.90;;;4.70;99.90;;;;;;4981732;28;20213;-76
2020/12/28 09:37:16;;;;;;;1999.90;999.90;;;4.80;99.90;;;;;;4981651;28;20209;-77
2020/12/28 09:39:43;;;;;;;1999.90;999.90;;;4.80;99.90;;;;;;4979326;28;20244;-77
2020/12/28 09:42:10;;;;;;;1999.90;999.90;;;4.80;99.90;;;;;;4972751;28;20302;-77
2020/12/28 09:44:38;;;;;;;1999.90;999.90;;;4.90;99.90;;;;;;4980854;28;20219;-74
2020/12/28 09:47:04;;;;;;;1999.90;999.90;;;5.00;99.90;;;;;;4979285;28;20625;-77
2020/12/28 09:49:31;;;;;;;1999.90;999.90;;;5.00;99.90;;;;;;4979433;28;20201;-78
2020/12/28 09:51:59;;;;;;;1999.90;999.90;;;4.90;99.90;;;;;;4981725;28;20227;-77
2020/12/28 09:54:26;;;;;;;1999.90;999.90;;;5.00;99.90;;;;;;4980994;28;20199;-78
2020/12/28 09:57:05;;;;;;;1999.90;999.90;;;5.00;99.90;;;;;;4978734;28;20597;-77
2020/12/28 09:59:35;;;;;;;1999.90;999.90;;;5.00;99.90;;;;;;4981380;28;20205;-76
2020/12/28 10:02:04;;;;;;;1999.90;999.90;;;5.10;99.90;;;;;;4981324;28;20224;-77
2020/12/28 10:04:31;;;;;;;1999.90;999.90;;;5.20;99.90;;;;;;4980071;28;20221;-76
2020/12/28 10:06:58;;;;;;;1999.90;999.90;;;5.20;99.90;;;;;;4979077;28;20208;-77
2020/12/28 10:09:26;;;;;;;1999.90;999.90;;;5.50;99.90;;;;;;4981828;28;20208;-78
2020/12/28 10:11:54;;;;;;;1999.90;999.90;;;5.50;99.90;;;;;;4979247;28;20220;-80
2020/12/28 10:14:21;;;;;;;1999.90;999.90;;;5.50;99.90;;;;;;4977958;28;20196;-80
2020/12/28 10:16:49;;;;;;;1999.90;999.90;;;5.60;99.90;;;;;;4977457;28;20192;-80
2020/12/28 10:19:17;;;;;;;1999.90;999.90;;;5.60;99.90;;;;;;4977605;28;20569;-81
2020/12/28 10:21:44;;;;;;;1999.90;999.90;;;5.60;99.90;;;;;;4977266;28;20221;-80
2020/12/28 10:24:11;;;;;;;1999.90;999.90;;;5.60;99.90;;;;;;4977324;28;20252;-81
2020/12/28 10:26:38;;;;;;;1999.90;999.90;;;5.60;99.90;;;;;;4976717;28;20208;-81
2020/12/28 10:29:05;;;;;;;1999.90;999.90;;;5.30;99.90;;;;;;4977470;28;20196;-79
2020/12/28 10:31:32;;;;;;;1999.90;999.90;;;5.40;99.90;;;;;;4977065;28;20228;-77
2020/12/28 10:33:59;;;;;;;1999.90;999.90;;;5.30;99.90;;;;;;4977621;28;20209;-78
2020/12/28 10:36:28;;;;;;;1999.90;999.90;;;5.30;99.90;;;;;;4977264;28;20201;-78
2020/12/28 10:38:57;;;;;;;1999.90;999.90;;;5.30;99.90;;;;;;4975892;28;20263;-77
2020/12/28 10:41:26;;;;;;;1999.90;999.90;;;5.30;99.90;;;;;;4977648;28;20735;-77
2020/12/28 10:43:54;;;;;;;1999.90;999.90;;;5.40;99.90;;;;;;4977506;28;20638;-77
2020/12/28 10:46:21;;;;;;;1999.90;999.90;;;5.40;99.90;;;;;;4977875;28;20232;-78
2020/12/28 10:48:48;;;;;;;1999.90;999.90;;;5.40;99.90;;;;;;4977948;28;20209;-77
2020/12/28 10:51:16;;;;;;;1999.90;999.90;;;5.30;99.90;;;;;;4977747;28;20772;-78
2020/12/28 10:53:44;;;;;;;1999.90;999.90;;;5.30;99.90;;;;;;4979229;28;20626;-78
2020/12/28 10:56:11;;;;;;;1999.90;999.90;;;5.30;99.90;;;;;;4979160;28;20200;-77
2020/12/28 11:02:29;;;;;;;1999.90;999.90;;;5.30;99.90;;;;;;5113309;27;20932;-78
2020/12/28 11:04:56;;;;;;;1999.90;999.90;;;5.30;99.90;;;;;;5092120;28;20200;-77
2020/12/28 11:07:23;;;;;;;1999.90;999.90;;;5.30;99.90;;;;;;5092882;28;20226;-76
2020/12/28 11:09:50;;;;;;;1999.90;999.90;;;5.30;99.90;;;;;;5090226;28;20845;-80
2020/12/28 11:12:17;;;;;;;1999.90;999.90;;;5.40;99.90;;;;;;5086648;28;20240;-77
2020/12/28 11:14:45;;;;;;;1999.90;999.90;;;5.60;99.90;;;;;;5083238;28;20201;-73
2020/12/28 11:17:12;;;;;;;1999.90;999.90;;;5.60;99.90;;;;;;5090168;28;20204;-75
2020/12/28 11:19:41;;;;;;;1999.90;999.90;;;5.60;99.90;;;;;;5090465;28;20196;-78
2020/12/28 11:22:09;;;;;;;1999.90;999.90;;;5.50;99.90;;;;;;5089285;28;20228;-77
2020/12/28 11:24:36;;;;;;;1999.90;999.90;;;5.50;99.90;;;;;;5089828;28;20197;-76
2020/12/28 11:27:04;;;;;;;1999.90;999.90;;;5.60;99.90;;;;;;5089539;28;20263;-77
2020/12/28 11:29:31;;;;;;;1999.90;999.90;;;5.60;99.90;;;;;;5089075;28;20673;-76
2020/12/28 11:31:58;;;;;;;1999.90;999.90;;;5.60;99.90;;;;;;5088147;28;20709;-77
2020/12/28 11:34:26;;;;;;;1999.90;999.90;;;5.70;99.90;;;;;;5088428;28;20237;-77
2020/12/28 11:36:54;;;;;;;1999.90;999.90;;;5.60;99.90;;;;;;5084354;28;20312;-76
2020/12/28 11:39:21;;;;;;;1999.90;999.90;;;5.60;99.90;;;;;;5085117;28;20205;-76
2020/12/28 11:41:49;;;;;;;1999.90;999.90;;;5.50;99.90;;;;;;5088120;28;20393;-76
2020/12/28 11:44:16;;;;;;;1999.90;999.90;;;5.50;99.90;;;;;;5088492;28;20193;-75
2020/12/28 11:46:43;;;;;;;1999.90;999.90;;;5.50;99.90;;;;;;5088131;28;20196;-76
2020/12/28 11:49:12;;;;;;;1999.90;999.90;;;5.50;99.90;;;;;;5088407;28;20291;-76
2020/12/28 11:51:39;;;;;;;1999.90;999.90;;;5.50;99.90;;;;;;5087826;28;20213;-77
2020/12/28 11:54:07;;;;;;;1999.90;999.90;;;5.50;99.90;;;;;;5104581;28;20204;-76
2020/12/28 11:56:35;;;;;;;1999.90;999.90;;;5.60;99.90;;;;;;5089106;28;20203;-77
2020/12/28 11:59:03;;;;;;;1999.90;999.90;;;5.50;99.90;;;;;;5088246;28;20599;-77
2020/12/28 12:01:30;;;;;;;1999.90;999.90;;;5.50;99.90;;;;;;5087840;28;20642;-77
2020/12/28 12:03:58;;;;;;;1999.90;999.90;;;5.50;99.90;;;;;;5087672;28;20200;-77
2020/12/28 12:06:26;;;;;;;1999.90;999.90;;;5.50;99.90;;;;;;5087623;28;20213;-78
2020/12/28 12:09:14;;;;;;;1999.90;999.90;;;5.50;99.90;;;;;;5087827;28;20224;-77
2020/12/28 12:11:44;;;;;;;1999.90;999.90;;;5.60;99.90;;;;;;5086796;28;20232;-78
2020/12/28 12:14:11;;;;;;;1999.90;999.90;;;5.60;99.90;;;;;;5074076;28;20205;-78
2020/12/28 12:16:55;;;;;;;1999.90;999.90;;;5.50;99.90;;;;;;5074800;28;20201;-78
2020/12/28 12:19:22;;;;;;;1999.90;999.90;;;5.40;99.90;;;;;;5074059;28;20209;-76
2020/12/28 12:21:50;;;;;;;1999.90;999.90;;;5.40;99.90;;;;;;5073926;28;20279;-76
2020/12/28 12:24:17;;;;;;;1999.90;999.90;;;5.40;99.90;;;;;;5075154;28;20247;-78
2020/12/28 12:26:45;;;;;;;1999.90;999.90;;;5.40;99.90;;;;;;5079077;28;20208;-80
2020/12/28 12:29:13;;;;;;;1999.90;999.90;;;5.40;99.90;;;;;;5082280;28;20263;-79
2020/12/28 12:31:40;;;;;;;1999.90;999.90;;;5.40;99.90;;;;;;5082021;28;20308;-79
2020/12/28 12:34:08;;;;;;;1999.90;999.90;;;5.30;99.90;;;;;;5079451;28;20225;-78
2020/12/28 12:36:36;;;;;;;1999.90;999.90;;;5.20;99.90;;;;;;5077484;28;20611;-78
2020/12/28 12:39:03;;;;;;;1999.90;999.90;;;5.20;99.90;;;;;;5076545;28;20209;-78
2020/12/28 12:41:30;;;;;;;1999.90;999.90;;;5.20;99.90;;;;;;5075909;28;20222;-78
2020/12/28 12:44:01;;;;;;;1999.90;999.90;;;5.20;99.90;;;;;;5077650;28;20258;-79
2020/12/28 12:46:29;;;;;;;1999.90;999.90;;;5.20;99.90;;;;;;5077542;28;20209;-79
2020/12/28 12:48:57;;;;;;;1999.90;999.90;;;5.30;99.90;;;;;;5076658;28;20676;-78
2020/12/28 12:51:24;;;;;;;1999.90;999.90;;;5.20;99.90;;;;;;5075741;28;20224;-79
2020/12/28 12:53:53;;;;;;;1999.90;999.90;;;5.20;99.90;;;;;;5077959;28;20244;-79
2020/12/28 12:56:21;;;;;;;1999.90;999.90;;;5.20;99.90;;;;;;5076759;28;20216;-77
2020/12/28 12:58:50;;;;;;;1999.90;999.90;;;5.20;99.90;;;;;;5070752;28;20205;-75
2020/12/28 13:01:19;;;;;;;1999.90;999.90;;;5.10;99.90;;;;;;5070314;28;20224;-75
2020/12/28 13:03:46;;;;;;;1999.90;999.90;;;5.20;99.90;;;;;;5071230;28;20197;-75
2020/12/28 13:06:16;;;;;;;1999.90;999.90;;;5.20;99.90;;;;;;5072104;28;20197;-77
2020/12/28 13:08:43;;;;;;;1999.90;999.90;;;5.20;99.90;;;;;;5071179;28;20205;-78
2020/12/28 13:11:10;;;;;;;1999.90;999.90;;;5.00;99.90;;;;;;5069922;28;20689;-76
2020/12/28 13:13:37;;;;;;;1999.90;999.90;;;5.10;99.90;;;;;;5071349;28;20239;-77
2020/12/28 13:16:05;;;;;;;1999.90;999.90;;;5.10;99.90;;;;;;5070955;28;20197;-77
2020/12/28 13:18:32;;;;;;;1999.90;999.90;;;5.20;99.90;;;;;;5071418;28;20201;-76
2020/12/28 13:21:00;;;;;;;1999.90;999.90;;;5.30;99.90;;;;;;5072130;28;20662;-77
2020/12/28 13:23:26;;;;;;;1999.90;999.90;;;5.30;99.90;;;;;;5071146;28;20198;-76
2020/12/28 13:25:53;;;;;;;1999.90;999.90;;;5.40;99.90;;;;;;5070998;28;20198;-75
2020/12/28 13:28:20;;;;;;;1999.90;999.90;;;5.30;99.90;;;;;;5071385;28;20193;-77
2020/12/28 13:30:47;;;;;;;1999.90;999.90;;;5.30;99.90;;;;;;5071923;28;20225;-78
2020/12/28 13:33:14;;;;;;;1999.90;999.90;;;5.20;99.90;;;;;;5071904;28;20201;-76
2020/12/28 13:35:43;;;;;;;1999.90;999.90;;;5.30;99.90;;;;;;5070810;28;20630;-75
2020/12/28 13:38:10;;;;;;;1999.90;999.90;;;5.30;99.90;;;;;;5070487;28;21035;-77
2020/12/28 13:40:39;;;;;;;1999.90;999.90;;;5.30;99.90;;;;;;5069983;28;20221;-77
2020/12/28 13:43:06;;;;;;;1999.90;999.90;;;5.30;99.90;;;;;;5071586;28;20659;-78
2020/12/28 13:45:33;;;;;;;1999.90;999.90;;;5.20;99.90;;;;;;5072163;28;20247;-77
2020/12/28 13:48:00;;;;;;;1999.90;999.90;;;5.30;99.90;;;;;;5071039;28;20201;-76
2020/12/28 13:50:26;;;;;;;1999.90;999.90;;;5.20;99.90;;;;;;5070731;28;20202;-78
2020/12/28 13:52:54;;;;;;;1999.90;999.90;;;5.10;99.90;;;;;;5071176;28;20198;-77
2020/12/28 13:55:21;;;;;;;1999.90;999.90;;;5.10;99.90;;;;;;5071420;28;20474;-74
2020/12/28 13:57:48;;;;;;;1999.90;999.90;;;5.10;99.90;;;;;;5074944;28;20685;-76
2020/12/28 14:00:15;;;;;;;1999.90;999.90;;;5.00;99.90;;;;;;5072780;28;20715;-78
2020/12/28 14:02:42;;;;;;;1999.90;999.90;;;5.00;99.90;;;;;;5077489;28;20252;-78
2020/12/28 14:05:09;;;;;;;1999.90;999.90;;;4.90;99.90;;;;;;5074205;28;20197;-79
2020/12/28 14:07:36;;;;;;;1999.90;999.90;;;4.80;99.90;;;;;;5077246;28;20197;-79
2020/12/28 14:10:03;;;;;;;1999.90;999.90;;;4.80;99.90;;;;;;5075289;28;20619;-78
2020/12/28 14:12:30;;;;;;;1999.90;999.90;;;4.80;99.90;;;;;;5083587;28;20243;-80
2020/12/28 14:14:57;;;;;;;1999.90;999.90;;;4.80;99.90;;;;;;5082998;28;20205;-79
2020/12/28 14:17:24;;;;;;;1999.90;999.90;;;4.80;99.90;;;;;;5078818;28;20205;-77
2020/12/28 14:19:51;;;;;;;1999.90;999.90;;;4.80;99.90;;;;;;5074579;28;20727;-79
2020/12/28 14:22:20;;;;;;;1999.90;999.90;;;4.80;99.90;;;;;;5075880;28;20255;-77
2020/12/28 14:24:47;;;;;;;1999.90;999.90;;;4.80;99.90;;;;;;5075040;28;20207;-77
2020/12/28 14:27:14;;;;;;;1999.90;999.90;;;4.80;99.90;;;;;;5071903;28;20197;-77
2020/12/28 14:29:42;;;;;;;1999.90;999.90;;;4.80;99.90;;;;;;5072400;28;20197;-76
2020/12/28 14:32:09;;;;;;;1999.90;999.90;;;4.80;99.90;;;;;;5072437;28;20209;-78
2020/12/28 14:34:36;;;;;;;1999.90;999.90;;;4.80;99.90;;;;;;5073916;28;20223;-75
2020/12/28 14:37:03;;;;;;;1999.90;999.90;;;4.80;99.90;;;;;;5073012;28;20258;-78
2020/12/28 14:39:30;;;;;;;1999.90;999.90;;;4.80;99.90;;;;;;5073562;28;20202;-77
2020/12/28 14:41:58;;;;;;;1999.90;999.90;;;4.80;99.90;;;;;;5053293;28;20574;-77
2020/12/28 14:44:26;;;;;;;1999.90;999.90;;;4.70;99.90;;;;;;5064377;28;20609;-78
2020/12/28 14:46:52;;;;;;;1999.90;999.90;;;4.80;99.90;;;;;;5071750;28;20231;-77
2020/12/28 14:49:19;;;;;;;1999.90;999.90;;;4.80;99.90;;;;;;5071438;28;20246;-77
2020/12/28 14:51:51;;;;;;;1999.90;999.90;;;4.70;99.90;;;;;;5072236;28;20220;-78
2020/12/28 14:54:18;;;;;;;1999.90;999.90;;;4.70;99.90;;;;;;5073916;28;20201;-78
2020/12/28 14:56:45;;;;;;;1999.90;999.90;;;4.70;99.90;;;;;;5073344;28;20235;-78
2020/12/28 14:59:12;;;;;;;1999.90;999.90;;;4.70;99.90;;;;;;5075320;28;20197;-78
2020/12/28 15:01:40;;;;;;;1999.90;999.90;;;4.60;99.90;;;;;;5072176;28;20266;-77
2020/12/28 15:04:07;;;;;;;1999.90;999.90;;;4.60;99.90;;;;;;5072945;28;20201;-73
2020/12/28 15:06:33;;;;;;;1999.90;999.90;;;4.60;99.90;;;;;;5073443;28;20255;-78
2020/12/28 15:09:00;;;;;;;1999.90;999.90;;;4.70;99.90;;;;;;5072911;28;20201;-78
2020/12/28 15:11:27;;;;;;;1999.90;999.90;;;4.70;99.90;;;;;;5072371;28;20570;-78
2020/12/28 15:13:54;;;;;;;1999.90;999.90;;;4.70;99.90;;;;;;5072157;28;20239;-78
2020/12/28 15:16:21;;;;;;;1999.90;999.90;;;4.70;99.90;;;;;;5071479;28;20209;-77
2020/12/28 15:18:49;;;;;;;1999.90;999.90;;;4.70;99.90;;;;;;5069070;28;20193;-77
2020/12/28 15:21:16;;;;;;;1999.90;999.90;;;4.60;99.90;;;;;;5071423;28;20217;-75
2020/12/28 15:23:43;;;;;;;1999.90;999.90;;;4.70;99.90;;;;;;5071536;28;20202;-74
2020/12/28 15:26:10;;;;;;;1999.90;999.90;;;4.70;99.90;;;;;;5070488;28;20193;-75
2020/12/28 15:28:37;;;;;;;1999.90;999.90;;;4.70;99.90;;;;;;5070476;28;20259;-75
2020/12/28 15:31:04;;;;;;;1999.90;999.90;;;4.70;99.90;;;;;;5070512;28;20221;-74
2020/12/28 15:33:30;;;;;;;1999.90;999.90;;;4.70;99.90;;;;;;5071362;28;20666;-74
2020/12/28 15:35:58;;;;;;;1999.90;999.90;;;4.80;99.90;;;;;;5071398;28;20197;-74
2020/12/28 15:38:25;;;;;;;1999.90;999.90;;;4.80;99.90;;;;;;5070754;28;20201;-74
2020/12/28 15:40:52;;;;;;;1999.90;999.90;;;4.80;99.90;;;;;;5071090;28;20233;-74
2020/12/28 15:43:19;;;;;;;1999.90;999.90;;;4.80;99.90;;;;;;5071570;28;20255;-74
2020/12/28 15:45:46;;;;;;;1999.90;999.90;;;4.80;99.90;;;;;;5071216;28;20733;-74
2020/12/28 15:48:13;;;;;;;1999.90;999.90;;;4.80;99.90;;;;;;5073149;28;20201;-75
2020/12/28 15:50:39;;;;;;;1999.90;999.90;;;4.80;99.90;;;;;;5074985;28;20262;-74
2020/12/28 15:53:08;;;;;;;1999.90;999.90;;;4.80;99.90;;;;;;5074892;28;20201;-75
2020/12/28 15:55:35;;;;;;;1999.90;999.90;;;4.70;99.90;;;;;;5074655;28;20284;-75
2020/12/28 15:58:02;;;;;;;1999.90;999.90;;;4.80;99.90;;;;;;5074875;28;20267;-74
2020/12/28 16:00:28;;;;;;;1999.90;999.90;;;4.80;99.90;;;;;;5074695;28;20220;-75
2020/12/28 16:02:55;;;;;;;1999.90;999.90;;;4.80;99.90;;;;;;5074571;28;20221;-75
2020/12/28 16:05:22;;;;;;;1999.90;999.90;;;4.80;99.90;;;;;;5074600;28;20201;-74
2020/12/28 16:07:49;;;;;;;1999.90;999.90;;;4.70;99.90;;;;;;5074287;28;20241;-75
2020/12/28 16:10:18;;;;;;;1999.90;999.90;;;4.70;99.90;;;;;;5074565;28;20205;-76
2020/12/28 16:12:44;;;;;;;1999.90;999.90;;;4.70;99.90;;;;;;5074356;28;20201;-75
2020/12/28 16:15:13;;;;;;;1999.90;999.90;;;4.70;99.90;;;;;;5076748;28;20205;-84
2020/12/28 16:17:40;;;;;;;1999.90;999.90;;;4.70;99.90;;;;;;5069004;28;20251;-82
2020/12/28 16:20:09;;;;;;;1999.90;999.90;;;4.70;99.90;;;;;;5077128;28;20202;-75
2020/12/28 16:22:35;;;;;;;1999.90;999.90;;;4.80;99.90;;;;;;5068513;28;20229;-75
2020/12/28 16:25:03;;;;;;;1999.90;999.90;;;4.80;99.90;;;;;;5074348;28;20577;-76
2020/12/28 16:27:33;;;;;;;1999.90;999.90;;;4.60;99.90;;;;;;5075170;28;20201;-78
2020/12/28 16:30:00;;;;;;;1999.90;999.90;;;4.80;99.90;;;;;;5076612;28;20197;-79
2020/12/28 16:32:27;;;;;;;1999.90;999.90;;;4.80;99.90;;;;;;5076355;28;20243;-79
2020/12/28 16:34:54;;;;;;;1999.90;999.90;;;4.80;99.90;;;;;;5079366;28;20209;-80
2020/12/28 16:37:20;;;;;;;1999.90;999.90;;;4.80;99.90;;;;;;5077959;28;20239;-79
2020/12/28 16:39:48;;;;;;;1999.90;999.90;;;4.90;99.90;;;;;;5076818;28;20201;-81
2020/12/28 16:42:15;;;;;;;1999.90;999.90;;;4.90;99.90;;;;;;5075845;28;20271;-79
2020/12/28 16:44:50;;;;;;;1999.90;999.90;;;5.00;99.90;;;;;;5077165;28;20217;-79
2020/12/28 16:47:17;;;;;;;1999.90;999.90;;;4.90;99.90;;;;;;5074470;28;20258;-76
2020/12/28 16:49:44;;;;;;;1999.90;999.90;;;5.00;99.90;;;;;;5073812;28;20240;-77
2020/12/28 16:52:11;;;;;;;1999.90;999.90;;;5.00;99.90;;;;;;5072653;28;20240;-76
2020/12/28 16:54:38;;;;;;;1999.90;999.90;;;5.00;99.90;;;;;;5069529;28;20246;-76
2020/12/28 16:57:05;;;;;;;1999.90;999.90;;;5.00;99.90;;;;;;5070514;28;20243;-75
2020/12/28 16:59:32;;;;;;;1999.90;999.90;;;4.90;99.90;;;;;;5073506;28;20205;-79
2020/12/28 17:02:00;;;;;;;1999.90;999.90;;;4.90;99.90;;;;;;5073100;28;20279;-78
2020/12/28 17:04:28;;;;;;;1999.90;999.90;;;5.00;99.90;;;;;;5073648;28;20258;-75
2020/12/28 17:06:58;;;;;;;1999.90;999.90;;;4.90;99.90;;;;;;5073582;28;20198;-77
2020/12/28 17:09:26;;;;;;;1999.90;999.90;;;4.90;99.90;;;;;;5072534;28;20209;-78
2020/12/28 17:11:54;;;;;;;1999.90;999.90;;;4.80;99.90;;;;;;5071600;28;20217;-77
2020/12/28 17:14:21;;;;;;;1999.90;999.90;;;4.80;99.90;;;;;;5072076;28;20201;-78
2020/12/28 17:16:48;;;;;;;1999.90;999.90;;;4.80;99.90;;;;;;5077510;28;20638;-78